createdAt,value
2023-09-01T00:05:17.241Z,5.82
2023-09-01T00:08:39.596Z,6.20
2023-09-01T00:11:45.561Z,6.57
2023-09-01T00:14:53.639Z,6.00
2023-09-01T00:18:00.987Z,7.32
2023-09-01T00:21:07.017Z,6.10
2023-09-01T00:24:12.051Z,6.70
2023-09-01T00:27:17.791Z,7.57
2023-09-01T00:30:23.251Z,6.50
2023-09-01T00:33:33.434Z,6.07
2023-09-01T00:36:39.060Z,6.65
2023-09-01T00:39:45.641Z,6.50
2023-09-01T00:42:50.770Z,7.32
2023-09-01T00:46:24.290Z,7.65
2023-09-01T00:49:36.258Z,6.57
2023-09-01T00:52:41.547Z,6.53
2023-09-01T00:55:46.767Z,7.32
2023-09-01T00:58:53.114Z,6.95
2023-09-01T01:01:58.122Z,7.03
2023-09-01T01:05:03.510Z,6.25
2023-09-01T01:08:21.573Z,6.15
2023-09-01T01:11:52.337Z,6.55
2023-09-01T01:14:58.348Z,6.28
2023-09-01T01:18:09.108Z,6.43
2023-09-01T01:21:23.231Z,6.50
2023-09-01T01:24:27.123Z,6.57
2023-09-01T01:27:31.517Z,6.93
2023-09-01T01:30:37.385Z,6.90
2023-09-01T01:34:04.723Z,7.85
2023-09-01T01:37:44.912Z,7.10
2023-09-01T01:40:52.700Z,7.35
2023-09-01T01:44:00.198Z,7.15
2023-09-01T01:47:07.381Z,6.30
2023-09-01T01:50:11.582Z,6.93
2023-09-01T01:53:17.265Z,5.97
2023-09-01T01:56:24.350Z,6.88
2023-09-01T01:59:28.303Z,7.20
2023-09-01T02:02:32.081Z,7.50
2023-09-01T02:05:36.451Z,7.03
2023-09-01T02:08:39.470Z,7.15
2023-09-01T02:11:42.815Z,6.22
2023-09-01T02:14:45.832Z,6.88
2023-09-01T02:17:49.930Z,7.43
2023-09-01T02:20:53.271Z,9.23
2023-09-01T02:23:56.654Z,8.05
2023-09-01T02:27:00.460Z,7.32
2023-09-01T02:30:04.976Z,7.22
2023-09-01T02:33:08.613Z,7.03
2023-09-01T02:36:33.437Z,6.95
2023-09-01T02:39:37.189Z,7.22
2023-09-01T02:42:44.127Z,7.13
2023-09-01T02:45:48.174Z,7.35
2023-09-01T02:48:52.831Z,6.80
2023-09-01T02:51:56.560Z,7.03
2023-09-01T02:55:01.674Z,7.30
2023-09-01T02:58:07.693Z,7.38
2023-09-01T03:01:13.511Z,6.47
2023-09-01T03:04:16.833Z,7.32
2023-09-01T03:07:21.033Z,7.18
2023-09-01T03:10:24.821Z,7.10
2023-09-01T03:13:29.369Z,7.57
2023-09-01T03:16:36.427Z,6.18
2023-09-01T03:19:42.609Z,6.70
2023-09-01T03:22:46.346Z,7.18
2023-09-01T03:25:58.203Z,7.05
2023-09-01T03:29:06.102Z,7.00
2023-09-01T03:32:12.342Z,7.78
2023-09-01T03:35:16.759Z,7.20
2023-09-01T03:38:20.933Z,7.15
2023-09-01T03:41:24.997Z,7.25
2023-09-01T03:44:29.645Z,6.82
2023-09-01T03:47:34.128Z,6.50
2023-09-01T03:50:42.174Z,6.60
2023-09-01T03:53:45.997Z,6.88
2023-09-01T03:56:50.614Z,6.32
2023-09-01T03:59:54.165Z,5.97
2023-09-01T04:02:58.834Z,5.57
2023-09-01T04:06:02.846Z,8.68
2023-09-01T04:09:07.708Z,6.72
2023-09-01T04:12:11.058Z,6.20
2023-09-01T04:15:15.350Z,6.05
2023-09-01T04:18:19.074Z,6.25
2023-09-01T04:21:24.290Z,6.20
2023-09-01T04:24:27.628Z,6.55
2023-09-01T04:27:31.712Z,6.25
2023-09-01T04:30:35.245Z,5.55
2023-09-01T04:33:40.200Z,6.53
2023-09-01T04:36:47.503Z,6.20
2023-09-01T04:39:52.775Z,6.63
2023-09-01T04:42:58.072Z,6.75
2023-09-01T04:46:02.410Z,5.78
2023-09-01T04:49:06.308Z,5.95
2023-09-01T04:52:10.620Z,6.53
2023-09-01T04:55:14.086Z,6.72
2023-09-01T04:58:18.499Z,6.22
2023-09-01T05:01:22.468Z,6.05
2023-09-01T05:04:26.203Z,4.85
2023-09-01T05:07:29.879Z,4.95
2023-09-01T05:10:34.522Z,4.75
2023-09-01T05:13:39.193Z,5.20
2023-09-01T05:16:43.135Z,4.95
2023-09-01T05:19:47.249Z,5.20
2023-09-01T05:22:51.120Z,4.72
2023-09-01T05:25:55.342Z,4.72
2023-09-01T05:28:58.806Z,4.82
2023-09-01T05:32:02.897Z,4.20
2023-09-01T05:35:07.654Z,4.63
2023-09-01T05:38:12.280Z,3.55
2023-09-01T05:41:16.423Z,4.55
2023-09-01T05:44:22.289Z,4.25
2023-09-01T05:47:26.206Z,4.05
2023-09-01T05:50:29.927Z,4.40
2023-09-01T05:53:34.322Z,4.28
2023-09-01T05:56:38.201Z,4.50
2023-09-01T05:59:41.165Z,3.90
2023-09-01T06:02:44.611Z,3.92
2023-09-01T06:05:47.667Z,4.50
2023-09-01T06:08:51.331Z,4.05
2023-09-01T06:11:54.498Z,4.32
2023-09-01T06:14:58.486Z,3.97
2023-09-01T06:18:02.203Z,4.30
2023-09-01T06:21:06.262Z,4.57
2023-09-01T06:24:11.718Z,4.00
2023-09-01T06:27:15.575Z,4.40
2023-09-01T06:30:18.748Z,3.92
2023-09-01T06:33:25.022Z,4.15
2023-09-01T06:36:27.935Z,3.78
2023-09-01T06:39:30.994Z,4.13
2023-09-01T06:42:34.572Z,4.05
2023-09-01T06:45:37.564Z,4.15
2023-09-01T06:48:41.271Z,4.38
2023-09-01T06:51:44.945Z,4.28
2023-09-01T06:54:50.169Z,4.93
2023-09-01T06:57:53.593Z,4.45
2023-09-01T07:00:59.744Z,5.22
2023-09-01T07:04:04.886Z,3.92
2023-09-01T07:07:08.007Z,4.55
2023-09-01T07:10:11.757Z,4.72
2023-09-01T07:13:15.721Z,4.55
2023-09-01T07:16:19.413Z,5.03
2023-09-01T07:19:23.263Z,5.20
2023-09-01T07:22:27.064Z,4.70
2023-09-01T07:25:32.882Z,4.53
2023-09-01T07:28:39.831Z,4.50
2023-09-01T07:31:43.402Z,4.97
2023-09-01T07:34:49.723Z,5.28
2023-09-01T07:37:52.648Z,4.95
2023-09-01T07:40:55.590Z,5.05
2023-09-01T07:43:58.641Z,7.65
2023-09-01T07:47:02.123Z,5.28
2023-09-01T07:50:05.331Z,6.18
2023-09-01T07:53:08.417Z,5.63
2023-09-01T07:56:12.353Z,6.03
2023-09-01T07:59:15.523Z,5.63
2023-09-01T08:02:19.500Z,5.82
2023-09-01T08:05:23.904Z,6.85
2023-09-01T08:08:27.727Z,6.28
2023-09-01T08:11:31.257Z,6.03
2023-09-01T08:14:35.026Z,6.20
2023-09-01T08:17:38.863Z,6.63
2023-09-01T08:20:43.916Z,6.47
2023-09-01T08:23:49.662Z,6.35
2023-09-01T08:26:53.889Z,7.40
2023-09-01T08:29:58.960Z,6.80
2023-09-01T08:33:03.888Z,8.73
2023-09-01T08:36:07.823Z,7.35
2023-09-01T08:39:10.966Z,7.22
2023-09-01T08:42:14.905Z,8.43
2023-09-01T08:45:20.941Z,8.40
2023-09-01T08:49:25.395Z,9.25
2023-09-01T08:52:29.630Z,7.18
2023-09-01T08:55:33.165Z,8.07
2023-09-01T08:58:38.298Z,8.13
2023-09-01T09:01:42.194Z,6.90
2023-09-01T09:04:48.326Z,7.25
2023-09-01T09:08:03.342Z,8.95
2023-09-01T09:11:17.259Z,7.53
2023-09-01T09:14:21.057Z,7.93
2023-09-01T09:17:24.847Z,10.55
2023-09-01T09:20:39.844Z,9.65
2023-09-01T09:23:45.712Z,16.05
2023-09-01T09:26:58.452Z,7.75
2023-09-01T09:30:03.076Z,8.75
2023-09-01T09:33:08.116Z,9.57
2023-09-01T09:36:11.944Z,8.40
2023-09-01T09:39:29.320Z,9.60
2023-09-01T09:42:40.405Z,8.90
2023-09-01T09:45:47.403Z,9.20
2023-09-01T09:48:51.002Z,9.25
2023-09-01T09:51:55.441Z,11.55
2023-09-01T09:55:03.435Z,8.27
2023-09-01T09:58:09.659Z,8.68
2023-09-01T10:01:19.693Z,14.48
2023-09-01T10:04:24.338Z,7.70
2023-09-01T10:07:28.278Z,7.22
2023-09-01T10:10:36.356Z,7.72
2023-09-01T10:13:41.557Z,18.02
2023-09-01T10:16:45.912Z,7.20
2023-09-01T10:19:50.377Z,7.97
2023-09-01T10:22:55.541Z,7.97
2023-09-01T10:26:30.334Z,7.97
2023-09-01T10:29:35.518Z,7.30
2023-09-01T10:32:40.114Z,11.10
2023-09-01T10:35:44.555Z,6.25
2023-09-01T10:38:48.396Z,7.70
2023-09-01T10:42:00.174Z,7.55
2023-09-01T10:45:10.609Z,8.73
2023-09-01T10:48:49.292Z,8.23
2023-09-01T10:52:15.126Z,9.75
2023-09-01T10:55:19.133Z,7.15
2023-09-01T10:58:23.263Z,7.55
2023-09-01T11:01:32.717Z,6.03
2023-09-01T11:04:36.948Z,4.90
2023-09-01T11:08:20.810Z,5.03
2023-09-01T11:11:24.745Z,4.30
2023-09-01T11:14:28.612Z,4.40
2023-09-01T11:17:42.923Z,5.32
2023-09-01T11:20:47.966Z,5.85
2023-09-01T11:23:51.841Z,6.13
2023-09-01T11:26:55.451Z,5.35
2023-09-01T11:30:05.144Z,6.20
2023-09-01T11:33:13.152Z,6.63
2023-09-01T11:36:17.503Z,7.75
2023-09-01T11:39:38.717Z,7.38
2023-09-01T11:42:44.358Z,7.38
2023-09-01T11:45:50.154Z,7.50
2023-09-01T11:52:13.182Z,5.90
2023-09-01T11:55:32.009Z,7.82
2023-09-01T11:58:36.317Z,7.53
2023-09-01T12:01:43.674Z,7.55
2023-09-01T12:04:51.411Z,7.88
2023-09-01T12:07:54.909Z,7.00
2023-09-01T12:11:08.915Z,5.85
2023-09-01T12:14:42.404Z,6.13
2023-09-01T12:17:47.017Z,6.57
2023-09-01T12:20:51.824Z,6.60
2023-09-01T12:24:07.371Z,6.53
2023-09-01T12:27:13.149Z,6.35
2023-09-01T12:30:19.785Z,6.43
2023-09-01T12:33:24.749Z,6.38
2023-09-01T12:36:29.393Z,6.10
2023-09-01T12:39:33.364Z,6.63
2023-09-01T12:42:37.177Z,6.45
2023-09-01T12:45:41.646Z,6.38
2023-09-01T12:48:45.645Z,6.72
2023-09-01T12:51:50.169Z,7.20
2023-09-01T12:54:54.343Z,7.05
2023-09-01T12:57:58.513Z,7.95
2023-09-01T13:01:07.639Z,7.78
2023-09-01T13:04:12.092Z,7.85
2023-09-01T13:07:17.682Z,6.93
2023-09-01T13:10:22.852Z,7.70
2023-09-01T13:13:26.845Z,7.82
2023-09-01T13:16:31.677Z,6.93
2023-09-01T13:19:35.876Z,7.63
2023-09-01T13:22:39.483Z,7.00
2023-09-01T13:25:42.974Z,6.78
2023-09-01T13:28:46.005Z,6.57
2023-09-01T13:31:49.871Z,6.03
2023-09-01T13:34:53.688Z,5.70
2023-09-01T13:37:57.357Z,5.65
2023-09-01T13:41:01.265Z,5.13
2023-09-01T13:44:08.587Z,5.82
2023-09-01T13:47:12.414Z,6.07
2023-09-01T13:50:16.497Z,6.05
2023-09-01T13:53:20.453Z,6.20
2023-09-01T13:56:25.093Z,5.60
2023-09-01T13:59:28.593Z,5.65
2023-09-01T14:02:35.733Z,5.35
2023-09-01T14:05:39.255Z,5.88
2023-09-01T14:08:43.679Z,5.18
2023-09-01T14:11:47.853Z,5.93
2023-09-01T14:14:52.420Z,5.00
2023-09-01T14:17:56.932Z,5.05
2023-09-01T14:21:00.781Z,4.70
2023-09-01T14:24:04.607Z,4.78
2023-09-01T14:27:08.390Z,4.78
2023-09-01T14:30:12.843Z,5.00
2023-09-01T14:33:19.192Z,4.82
2023-09-01T14:36:29.871Z,4.38
2023-09-01T14:39:35.150Z,4.88
2023-09-01T14:42:39.102Z,4.60
2023-09-01T14:45:44.423Z,5.32
2023-09-01T14:48:48.674Z,5.32
2023-09-01T14:51:52.038Z,4.80
2023-09-01T14:54:55.123Z,5.00
2023-09-01T14:57:58.841Z,5.55
2023-09-01T15:01:03.789Z,5.55
2023-09-01T15:04:08.693Z,5.47
2023-09-01T15:07:12.249Z,5.32
2023-09-01T15:10:17.757Z,7.00
2023-09-01T15:13:23.872Z,6.50
2023-09-01T15:16:28.125Z,6.32
2023-09-01T15:19:31.906Z,5.95
2023-09-01T15:22:36.171Z,6.22
2023-09-01T15:25:41.700Z,6.13
2023-09-01T15:28:45.795Z,5.22
2023-09-01T15:31:49.477Z,6.05
2023-09-01T15:35:04.486Z,6.22
2023-09-01T15:38:17.253Z,8.98
2023-09-01T15:41:21.227Z,13.82
2023-09-01T15:44:26.185Z,16.90
2023-09-01T15:47:30.171Z,16.35
2023-09-01T15:50:44.835Z,13.52
2023-09-01T15:53:50.050Z,7.82
2023-09-01T15:56:53.918Z,9.63
2023-09-01T15:59:57.998Z,10.63
2023-09-01T16:03:01.960Z,8.60
2023-09-01T16:06:06.921Z,11.15
2023-09-01T16:09:11.046Z,9.52
2023-09-01T16:12:15.008Z,8.88
2023-09-01T16:15:20.048Z,13.52
2023-09-01T16:18:23.917Z,10.38
2023-09-01T16:21:27.446Z,11.93
2023-09-01T16:24:31.585Z,9.68
2023-09-01T16:27:35.395Z,9.15
2023-09-01T16:30:40.268Z,8.93
2023-09-01T16:33:43.568Z,8.60
2023-09-01T16:36:47.873Z,10.25
2023-09-01T16:39:52.703Z,10.70
2023-09-01T16:42:58.951Z,10.23
2023-09-01T16:46:02.813Z,11.10
2023-09-01T16:49:07.706Z,13.82
2023-09-01T16:52:12.078Z,12.02
2023-09-01T16:55:16.213Z,10.77
2023-09-01T16:58:20.343Z,10.45
2023-09-01T17:01:24.545Z,9.68
2023-09-01T17:04:28.331Z,10.00
2023-09-01T17:07:32.439Z,11.05
2023-09-01T17:10:36.281Z,10.73
2023-09-01T17:13:40.071Z,9.20
2023-09-01T17:16:44.026Z,7.90
2023-09-01T17:19:48.173Z,7.82
2023-09-01T17:22:51.241Z,8.43
2023-09-01T17:25:54.372Z,8.57
2023-09-01T17:28:58.217Z,9.48
2023-09-01T17:32:02.020Z,9.18
2023-09-01T17:35:05.612Z,10.55
2023-09-01T17:38:09.628Z,9.27
2023-09-01T17:41:14.115Z,7.82
2023-09-01T17:44:17.533Z,7.13
2023-09-01T17:47:21.234Z,6.75
2023-09-01T17:50:25.539Z,7.18
2023-09-01T17:53:30.146Z,6.68
2023-09-01T17:56:33.760Z,6.82
2023-09-01T17:59:37.629Z,6.35
2023-09-01T18:02:42.139Z,5.60
2023-09-01T18:05:46.587Z,5.60
2023-09-01T18:08:50.897Z,6.18
2023-09-01T18:11:53.987Z,5.93
2023-09-01T18:14:58.455Z,5.78
2023-09-01T18:18:02.636Z,5.82
2023-09-01T18:21:07.296Z,6.20
2023-09-01T18:24:26.534Z,6.13
2023-09-01T18:27:32.989Z,5.93
2023-09-01T18:30:36.549Z,6.07
2023-09-01T18:33:43.901Z,6.43
2023-09-01T18:36:47.754Z,6.22
2023-09-01T18:39:51.615Z,5.60
2023-09-01T18:42:55.609Z,5.43
2023-09-01T18:46:00.247Z,5.97
2023-09-01T18:49:08.423Z,6.28
2023-09-01T18:52:12.680Z,6.53
2023-09-01T18:55:17.716Z,5.93
2023-09-01T18:58:22.395Z,5.65
2023-09-01T19:01:29.868Z,5.75
2023-09-01T19:04:45.540Z,6.55
2023-09-01T19:07:48.622Z,6.05
2023-09-01T19:10:54.947Z,6.80
2023-09-01T19:14:02.758Z,7.82
2023-09-01T19:17:07.603Z,7.93
2023-09-01T19:20:23.818Z,8.88
2023-09-01T19:23:32.610Z,7.72
2023-09-01T19:26:36.291Z,8.77
2023-09-01T19:29:40.514Z,8.23
2023-09-01T19:32:44.596Z,9.32
2023-09-01T19:35:48.471Z,8.02
2023-09-01T19:38:53.161Z,6.78
2023-09-01T19:42:00.284Z,9.82
2023-09-01T19:45:10.092Z,5.95
2023-09-01T19:48:14.313Z,5.78
2023-09-01T19:51:17.706Z,5.53
2023-09-01T19:54:25.700Z,5.93
2023-09-01T19:57:29.283Z,5.88
2023-09-01T20:00:33.462Z,5.53
2023-09-01T20:03:37.509Z,6.32
2023-09-01T20:06:41.775Z,5.63
2023-09-01T20:09:45.879Z,5.55
2023-09-01T20:12:49.134Z,5.50
2023-09-01T20:15:52.931Z,6.07
2023-09-01T20:18:56.100Z,6.10
2023-09-01T20:22:02.222Z,5.88
2023-09-01T20:25:06.568Z,5.75
2023-09-01T20:28:11.835Z,5.80
2023-09-01T20:31:16.235Z,5.55
2023-09-01T20:34:20.306Z,5.05
2023-09-01T20:37:24.692Z,5.65
2023-09-01T20:40:28.428Z,6.20
2023-09-01T20:43:33.109Z,5.95
2023-09-01T20:46:36.673Z,6.25
2023-09-01T20:49:42.074Z,6.88
2023-09-01T20:52:46.228Z,6.30
2023-09-01T20:55:50.424Z,6.80
2023-09-01T20:58:54.186Z,6.78
2023-09-01T21:01:58.349Z,8.15
2023-09-01T21:05:02.106Z,7.60
2023-09-01T21:08:06.084Z,7.82
2023-09-01T21:11:10.738Z,8.30
2023-09-01T21:14:14.121Z,7.65
2023-09-01T21:17:18.027Z,7.93
2023-09-01T21:20:22.165Z,10.02
2023-09-01T21:23:25.602Z,8.52
2023-09-01T21:26:33.394Z,7.80
2023-09-01T21:29:39.980Z,8.02
2023-09-01T21:32:44.460Z,7.72
2023-09-01T21:35:48.385Z,7.45
2023-09-01T21:38:51.814Z,8.23
2023-09-01T21:41:55.512Z,7.22
2023-09-01T21:44:58.807Z,7.10
2023-09-01T21:48:03.014Z,6.75
2023-09-01T21:51:07.021Z,6.68
2023-09-01T21:54:10.846Z,7.00
2023-09-01T21:57:14.093Z,6.68
2023-09-01T22:00:18.280Z,6.55
2023-09-01T22:03:21.730Z,6.63
2023-09-01T22:06:26.072Z,6.47
2023-09-01T22:09:29.476Z,6.68
2023-09-01T22:12:33.714Z,6.68
2023-09-01T22:15:37.470Z,6.88
2023-09-01T22:18:41.400Z,6.55
2023-09-01T22:21:45.346Z,6.90
2023-09-01T22:24:50.322Z,7.35
2023-09-01T22:27:54.573Z,6.82
2023-09-01T22:30:57.806Z,6.32
2023-09-01T22:34:01.498Z,6.95
2023-09-01T22:37:06.225Z,6.68
2023-09-01T22:40:10.955Z,6.45
2023-09-01T22:43:17.797Z,5.97
2023-09-01T22:46:21.816Z,5.93
2023-09-01T22:49:25.664Z,6.60
2023-09-01T22:52:29.450Z,5.78
2023-09-01T22:55:33.450Z,5.65
2023-09-01T22:58:37.079Z,6.68
2023-09-01T23:01:40.630Z,6.65
2023-09-01T23:04:44.402Z,5.68
2023-09-01T23:07:48.156Z,5.85
2023-09-01T23:10:52.963Z,5.63
2023-09-01T23:13:57.126Z,6.00
2023-09-01T23:17:03.707Z,5.78
2023-09-01T23:20:09.708Z,5.93
2023-09-01T23:23:13.254Z,6.60
2023-09-01T23:26:18.884Z,6.03
2023-09-01T23:29:22.658Z,5.93
2023-09-01T23:32:27.635Z,5.05
2023-09-01T23:35:31.046Z,5.30
2023-09-01T23:38:35.271Z,5.68
2023-09-01T23:41:40.804Z,5.93
2023-09-01T23:44:44.866Z,5.43
2023-09-01T23:47:49.905Z,5.57
2023-09-01T23:50:55.411Z,5.40
2023-09-01T23:53:58.782Z,7.10
2023-09-01T23:57:02.931Z,8.77
